Glenwood, Iowa
Current Conditions -  °F | °C
As of 10:58 AM on Friday 28 Nov 2014 (Local Time) from KOFF Reporting Station
Clear Clear  
Wind Chill: 34°   Ceiling: Unl
Heat Index: 39°   Visibility: 10mi
Dew Point: 27°   Wind: 7mph
Humidity: 62%   Direction: 180°S
Pressure: 29.84"   Gusts: NA
Location:  41.05°N, 95.74°W
Report Text: KOFF 281658Z AUTO 18006KT 10SM CLR 04/M03 A2984 RMK AO2 SLP119 T00381028
Loading
Personal Weather Stations






























Interactive Weather Map New forecast layout! Learn more

10-Day Weather Forecast

Advertisements
Track Severe Weather on mobile